Time;durP1;ratioP1;P1;durP2;ratioP2;P2;SDS_P1;SDS_P2;PMS_P1;PMS_P2;Temp;Humidity;BMP_temperature;BMP_pressure;BME280_temperature;BME280_humidity;BME280_pressure;Samples;Min_cycle;Max_cycle;Signal;HPM_P1;HPM_P2
2023/12/22 00:00:29;;;;;;;33.25;4.38;;;;;;;9.11;100.00;101037.25;5037179;28;20032;-76
2023/12/22 00:02:59;;;;;;;32.33;4.60;;;;;;;9.10;100.00;101028.09;5021005;28;20052;-75
2023/12/22 00:05:24;;;;;;;23.67;4.05;;;;;;;9.10;100.00;101030.88;5020874;28;20022;-75
2023/12/22 00:07:50;;;;;;;27.63;4.55;;;;;;;9.06;100.00;101029.75;5053138;28;20037;-75
2023/12/22 00:10:15;;;;;;;28.75;4.43;;;;;;;9.06;100.00;101018.69;5017426;28;20076;-75
2023/12/22 00:12:41;;;;;;;28.88;4.03;;;;;;;9.05;100.00;101022.53;5004497;28;20518;-75
2023/12/22 00:15:07;;;;;;;32.90;3.75;;;;;;;9.04;100.00;101026.41;5014620;28;20083;-75
2023/12/22 00:17:33;;;;;;;34.38;4.07;;;;;;;9.05;100.00;101033.63;5019741;28;20033;-76
2023/12/22 00:20:02;;;;;;;30.92;4.93;;;;;;;9.05;100.00;101050.25;5036723;28;20058;-75
2023/12/22 00:22:28;;;;;;;25.67;4.00;;;;;;;9.02;100.00;101038.88;5020067;28;20501;-75
2023/12/22 00:24:54;;;;;;;33.30;4.63;;;;;;;9.02;100.00;101044.41;5020485;28;20044;-75
2023/12/22 00:27:19;;;;;;;27.55;4.00;;;;;;;9.02;100.00;101033.34;5037008;28;20083;-75
2023/12/22 00:29:44;;;;;;;25.20;3.80;;;;;;;8.99;100.00;101029.16;5020157;28;20565;-75
2023/12/22 00:32:10;;;;;;;30.52;3.42;;;;;;;8.99;100.00;101034.72;4985984;28;20076;-75
2023/12/22 00:34:36;;;;;;;28.65;4.00;;;;;;;8.94;100.00;101032.75;5036838;28;20525;-75
2023/12/22 00:37:01;;;;;;;31.85;4.38;;;;;;;8.95;100.00;101037.19;5036682;28;20075;-75
2023/12/22 00:39:27;;;;;;;25.20;3.53;;;;;;;8.97;100.00;101041.63;5020032;28;20117;-76
2023/12/22 00:41:52;;;;;;;21.90;3.58;;;;;;;8.93;100.00;101022.78;5038027;28;20030;-76
2023/12/22 00:44:18;;;;;;;28.17;4.35;;;;;;;8.92;100.00;101023.06;5045717;28;20075;-76
2023/12/22 00:46:43;;;;;;;30.05;3.63;;;;;;;8.90;100.00;101016.94;5036472;28;20495;-76
2023/12/22 00:49:09;;;;;;;25.05;3.55;;;;;;;8.90;100.00;101014.19;5037596;28;20025;-76
2023/12/22 00:51:34;;;;;;;19.63;2.95;;;;;;;8.87;100.00;101018.31;5028762;28;20133;-76
2023/12/22 00:54:00;;;;;;;28.20;3.55;;;;;;;8.85;100.00;101017.75;5030102;28;20478;-75
2023/12/22 00:56:25;;;;;;;25.98;3.33;;;;;;;8.83;100.00;101017.22;5036538;28;20038;-75
2023/12/22 00:58:51;;;;;;;30.17;3.40;;;;;;;8.82;100.00;101031.31;5037195;28;20044;-76
2023/12/22 01:01:16;;;;;;;22.08;3.10;;;;;;;8.82;100.00;101042.38;5036370;28;20508;-75
2023/12/22 01:03:41;;;;;;;25.23;3.00;;;;;;;8.83;100.00;101042.13;5019689;28;20033;-75
2023/12/22 01:06:07;;;;;;;28.05;3.42;;;;;;;8.82;100.00;101031.31;5036545;28;20033;-75
2023/12/22 01:08:32;;;;;;;28.55;3.42;;;;;;;8.83;100.00;101030.19;5019742;28;20025;-75
2023/12/22 01:10:58;;;;;;;28.70;3.78;;;;;;;8.84;100.00;101032.72;5036189;28;20040;-75
2023/12/22 01:13:23;;;;;;;22.38;3.58;;;;;;;8.86;100.00;101037.97;5015474;28;20044;-75
2023/12/22 01:15:49;;;;;;;19.15;3.08;;;;;;;8.87;100.00;101031.34;5016367;28;20069;-75
2023/12/22 01:18:14;;;;;;;19.58;3.03;;;;;;;8.87;100.00;101015.53;5029546;28;20041;-75
2023/12/22 01:20:40;;;;;;;24.05;3.08;;;;;;;8.88;100.00;101021.91;5035875;28;20034;-75
2023/12/22 01:23:06;;;;;;;19.88;3.50;;;;;;;8.89;100.00;101027.19;5036002;28;20057;-75
2023/12/22 01:25:31;;;;;;;23.85;3.25;;;;;;;8.89;100.00;101026.38;4987959;28;20030;-75
2023/12/22 01:27:56;;;;;;;24.23;2.83;;;;;;;8.90;100.00;101028.03;5042995;28;20025;-75
2023/12/22 01:30:22;;;;;;;24.38;3.75;;;;;;;8.91;100.00;101033.31;5018756;28;20026;-75
2023/12/22 01:32:47;;;;;;;20.05;3.65;;;;;;;8.91;100.00;101026.91;5019224;28;20059;-75
2023/12/22 01:35:14;;;;;;;23.05;3.40;;;;;;;8.91;100.00;101022.22;5036676;28;20049;-75
2023/12/22 01:37:39;;;;;;;30.13;3.80;;;;;;;8.91;100.00;101019.47;5019221;28;20084;-74
2023/12/22 01:40:05;;;;;;;26.80;3.80;;;;;;;8.94;100.00;101027.22;5002915;28;20075;-74
2023/12/22 01:42:31;;;;;;;22.35;3.78;;;;;;;8.94;100.00;101021.69;5033095;28;20029;-75
2023/12/22 01:44:56;;;;;;;19.92;3.20;;;;;;;8.95;100.00;101036.38;4999766;28;20067;-75
2023/12/22 01:47:22;;;;;;;25.05;3.13;;;;;;;8.95;100.00;101039.97;5035622;28;20025;-75
2023/12/22 01:49:48;;;;;;;22.65;3.85;;;;;;;8.97;100.00;101041.63;5036262;28;20021;-75
2023/12/22 01:52:14;;;;;;;27.90;3.58;;;;;;;8.97;100.00;101031.41;5036819;28;20033;-75
2023/12/22 01:54:39;;;;;;;22.50;3.60;;;;;;;8.98;100.00;101033.06;5018774;28;20060;-75
2023/12/22 01:57:05;;;;;;;20.27;3.20;;;;;;;8.98;100.00;101048.84;5036361;28;20037;-75
2023/12/22 01:59:34;;;;;;;17.13;3.00;;;;;;;8.99;100.00;101044.97;5001750;28;20471;-75
2023/12/22 02:02:00;;;;;;;20.27;3.47;;;;;;;8.98;100.00;101046.06;5035010;28;20489;-75
2023/12/22 02:04:26;;;;;;;18.35;3.00;;;;;;;8.99;100.00;101051.31;5017814;28;20041;-75
2023/12/22 02:06:51;;;;;;;23.48;2.80;;;;;;;8.97;100.00;101042.47;5035047;28;20056;-75
2023/12/22 02:09:17;;;;;;;20.40;3.60;;;;;;;8.98;100.00;101048.84;5002202;28;20033;-75
2023/12/22 02:11:42;;;;;;;22.63;2.58;;;;;;;8.98;100.00;101046.06;5002523;28;20040;-75
2023/12/22 02:14:08;;;;;;;22.58;3.40;;;;;;;8.98;100.00;101049.66;5018149;28;20029;-75
2023/12/22 02:16:44;;;;;;;22.50;3.08;;;;;;;8.99;100.00;101047.72;5034807;28;20029;-75
2023/12/22 02:19:36;;;;;;;17.38;3.17;;;;;;;8.98;100.00;101040.53;5000985;28;20145;-75
2023/12/22 02:22:01;;;;;;;20.38;3.35;;;;;;;9.00;100.00;101043.84;5034369;28;20102;-75
2023/12/22 02:24:27;;;;;;;28.60;3.65;;;;;;;9.01;100.00;101057.44;5034847;28;20497;-75
2023/12/22 02:26:52;;;;;;;21.27;2.90;;;;;;;9.01;100.00;101071.28;5018341;28;20032;-75
2023/12/22 02:29:18;;;;;;;14.00;2.15;;;;;;;8.97;100.00;101066.56;5034588;28;20120;-75
2023/12/22 02:31:44;;;;;;;19.38;2.88;;;;;;;8.96;100.00;101065.72;5016362;28;20029;-75
2023/12/22 02:34:12;;;;;;;21.35;3.10;;;;;;;8.95;100.00;101067.66;5010131;28;20033;-75
2023/12/22 02:36:38;;;;;;;18.05;2.78;;;;;;;8.95;100.00;101072.38;5012099;28;20038;-75
2023/12/22 02:39:03;;;;;;;21.58;2.40;;;;;;;8.93;100.00;101069.03;5026079;28;20044;-75
2023/12/22 02:41:29;;;;;;;21.02;2.90;;;;;;;8.94;100.00;101067.91;5011260;28;20033;-75
2023/12/22 02:43:54;;;;;;;16.83;2.42;;;;;;;8.95;100.00;101066.84;5025965;28;20036;-75
2023/12/22 02:46:20;;;;;;;19.20;2.40;;;;;;;8.95;100.00;101055.75;4998606;28;20017;-75
2023/12/22 02:48:45;;;;;;;14.07;2.28;;;;;;;8.93;100.00;101058.78;5025171;28;20092;-76
2023/12/22 02:51:11;;;;;;;16.17;2.22;;;;;;;8.93;100.00;101058.78;5000358;28;20034;-75
2023/12/22 02:53:36;;;;;;;10.55;2.60;;;;;;;8.95;100.00;101066.84;5023828;28;20028;-75
2023/12/22 02:56:02;;;;;;;18.42;2.78;;;;;;;8.95;100.00;101078.75;5027998;28;20490;-75
2023/12/22 02:58:28;;;;;;;24.55;3.03;;;;;;;8.97;100.00;101066.56;5011783;28;20025;-75
2023/12/22 03:00:53;;;;;;;20.92;2.80;;;;;;;8.98;100.00;101066.28;5059805;28;20036;-76
2023/12/22 03:03:19;;;;;;;24.60;3.47;;;;;;;8.98;100.00;101057.97;5027390;28;20033;-76
2023/12/22 03:05:44;;;;;;;19.83;3.05;;;;;;;8.99;100.00;101056.03;5010166;28;20041;-75
2023/12/22 03:08:09;;;;;;;18.30;2.63;;;;;;;9.03;100.00;101065.50;5028115;28;20039;-76
2023/12/22 03:10:35;;;;;;;20.50;2.72;;;;;;;9.03;100.00;101052.47;5011971;28;20037;-76
2023/12/22 03:13:00;;;;;;;19.85;3.38;;;;;;;9.03;100.00;101032.25;5010365;28;20052;-76
2023/12/22 03:15:26;;;;;;;18.55;2.63;;;;;;;9.04;100.00;101043.03;5027470;28;20029;-76
2023/12/22 03:17:52;;;;;;;19.35;3.10;;;;;;;9.05;100.00;101027.25;5002905;28;20033;-76
2023/12/22 03:20:17;;;;;;;18.83;2.88;;;;;;;9.06;100.00;101032.53;5025265;28;20057;-76
2023/12/22 03:22:43;;;;;;;14.25;2.17;;;;;;;9.06;100.00;101035.31;4989016;28;20025;-76
2023/12/22 03:25:09;;;;;;;15.45;2.58;;;;;;;9.05;100.00;101033.63;5021273;28;20637;-75
2023/12/22 03:27:34;;;;;;;23.90;2.95;;;;;;;9.06;100.00;101029.75;5038080;28;20056;-76
2023/12/22 03:30:01;;;;;;;20.98;2.70;;;;;;;9.07;100.00;101036.94;5021104;28;20025;-76
2023/12/22 03:32:27;;;;;;;22.80;2.65;;;;;;;9.09;100.00;101028.38;5039337;28;20115;-76
2023/12/22 03:34:52;;;;;;;23.30;2.95;;;;;;;9.08;100.00;101030.34;5037977;28;20033;-76
2023/12/22 03:37:18;;;;;;;18.20;2.20;;;;;;;9.10;100.00;101030.88;5037858;28;20080;-76
2023/12/22 03:39:43;;;;;;;18.85;3.10;;;;;;;9.09;100.00;101022.84;5038972;28;20375;-76
2023/12/22 03:42:09;;;;;;;17.63;2.67;;;;;;;9.08;100.00;101016.47;5021378;28;20036;-76
2023/12/22 03:44:34;;;;;;;12.60;2.10;;;;;;;9.10;100.00;101017.00;5039409;28;20037;-76
2023/12/22 03:46:59;;;;;;;22.33;2.85;;;;;;;9.09;100.00;101006.22;5021028;28;20025;-76
2023/12/22 03:49:25;;;;;;;21.55;2.33;;;;;;;9.08;100.00;101016.47;5037366;28;20033;-76
2023/12/22 03:51:50;;;;;;;15.30;2.58;;;;;;;9.10;100.00;101024.50;5041326;28;20060;-76
2023/12/22 03:54:17;;;;;;;22.50;2.45;;;;;;;9.10;100.00;101024.50;5037490;28;20033;-76
2023/12/22 03:56:42;;;;;;;11.02;2.03;;;;;;;9.11;100.00;101028.94;5037462;28;20026;-76
2023/12/22 03:59:08;;;;;;;15.40;2.50;;;;;;;9.09;100.00;101018.13;5036969;28;20084;-76
2023/12/22 04:01:34;;;;;;;16.65;1.92;;;;;;;9.11;100.00;101026.16;5037495;28;20079;-76
2023/12/22 04:03:59;;;;;;;10.35;1.63;;;;;;;9.10;100.00;101030.88;5003678;28;20033;-75
2023/12/22 04:06:25;;;;;;;16.92;2.30;;;;;;;9.10;100.00;101028.09;5004425;28;20029;-76
2023/12/22 04:08:50;;;;;;;13.00;1.90;;;;;;;9.10;100.00;101018.97;5020607;28;20037;-76
2023/12/22 04:11:16;;;;;;;11.70;1.83;;;;;;;9.09;100.00;101028.38;5004670;28;20040;-75
2023/12/22 04:13:41;;;;;;;9.77;1.67;;;;;;;9.08;100.00;101021.16;5032187;28;20034;-76
2023/12/22 04:16:07;;;;;;;12.85;1.98;;;;;;;9.05;100.00;101025.31;5004488;28;20022;-75
2023/12/22 04:18:32;;;;;;;9.02;1.70;;;;;;;9.06;100.00;101024.22;5037319;28;20041;-75
2023/12/22 04:20:58;;;;;;;15.45;2.05;;;;;;;9.06;100.00;101013.13;5037082;28;20033;-76
2023/12/22 04:23:23;;;;;;;8.32;1.55;;;;;;;9.06;100.00;101023.41;5038019;28;20033;-75
2023/12/22 04:25:49;;;;;;;13.85;1.88;;;;;;;9.05;100.00;101027.25;5004303;28;20029;-76
2023/12/22 04:28:15;;;;;;;11.05;1.40;;;;;;;9.06;100.00;101015.06;5020006;28;20037;-75
2023/12/22 04:30:40;;;;;;;9.52;1.42;;;;;;;9.05;100.00;101019.75;5037239;28;20029;-76
2023/12/22 04:33:06;;;;;;;20.63;2.10;;;;;;;9.04;100.00;101015.34;5020460;28;20041;-75
2023/12/22 04:35:31;;;;;;;11.30;1.73;;;;;;;9.04;100.00;101009.78;5037110;28;20029;-75
2023/12/22 04:37:57;;;;;;;7.90;1.50;;;;;;;9.03;100.00;101010.91;5036426;28;20033;-76
2023/12/22 04:40:22;;;;;;;10.93;1.48;;;;;;;9.03;100.00;101019.22;5037991;28;20029;-76
2023/12/22 04:42:48;;;;;;;10.52;1.50;;;;;;;9.05;100.00;101018.94;5003691;28;20087;-76
2023/12/22 04:45:13;;;;;;;7.93;1.30;;;;;;;9.03;100.00;101024.75;5020158;28;20025;-76
2023/12/22 04:47:39;;;;;;;8.43;1.35;;;;;;;9.06;100.00;101023.41;5003849;28;20049;-76
2023/12/22 04:50:04;;;;;;;6.40;1.10;;;;;;;9.05;100.00;101019.75;5022777;28;20017;-76
2023/12/22 04:52:30;;;;;;;12.32;1.63;;;;;;;9.04;100.00;101020.88;5046956;28;20031;-75
2023/12/22 04:54:56;;;;;;;9.32;1.30;;;;;;;9.06;100.00;101007.59;5036855;28;20383;-75
2023/12/22 04:57:22;;;;;;;5.15;0.90;;;;;;;9.07;100.00;101012.03;5032455;28;20025;-75
2023/12/22 04:59:47;;;;;;;11.65;1.08;;;;;;;9.08;100.00;101013.72;5019723;28;20037;-75
2023/12/22 05:02:13;;;;;;;7.32;0.90;;;;;;;9.09;100.00;101017.31;5019630;28;20132;-75
2023/12/22 05:04:38;;;;;;;5.95;1.20;;;;;;;9.10;100.00;101014.25;5003355;28;20036;-75
2023/12/22 05:07:06;;;;;;;7.13;0.80;;;;;;;9.12;100.00;101028.66;5037356;28;20073;-75
2023/12/22 05:09:33;;;;;;;9.43;1.10;;;;;;;9.12;100.00;101017.59;5036181;28;20037;-75
2023/12/22 05:11:59;;;;;;;9.95;1.75;;;;;;;9.15;100.00;101028.13;5003580;28;20352;-76
2023/12/22 05:14:24;;;;;;;5.85;1.17;;;;;;;9.15;100.00;101025.34;5002927;28;20071;-75
2023/12/22 05:16:50;;;;;;;5.32;0.80;;;;;;;9.16;100.00;101024.25;5002830;28;20032;-75
2023/12/22 05:19:16;;;;;;;7.85;1.17;;;;;;;9.17;100.00;101014.84;5000069;28;20100;-75
2023/12/22 05:21:41;;;;;;;5.63;0.80;;;;;;;9.17;100.00;101022.31;5028964;28;20390;-75
2023/12/22 05:24:07;;;;;;;4.05;0.98;;;;;;;9.16;100.00;101018.72;5031163;28;20088;-75
2023/12/22 05:26:32;;;;;;;4.82;0.88;;;;;;;9.18;100.00;101024.81;4978304;28;20049;-76
2023/12/22 05:28:58;;;;;;;3.28;0.60;;;;;;;9.18;100.00;101021.19;5013302;28;20052;-75
2023/12/22 05:31:23;;;;;;;2.47;0.68;;;;;;;9.19;100.00;101028.41;5041484;28;20034;-75
2023/12/22 05:33:48;;;;;;;6.03;0.65;;;;;;;9.18;100.00;101027.56;5009057;28;20021;-75
2023/12/22 05:36:14;;;;;;;6.78;1.02;;;;;;;9.18;100.00;101021.19;5012102;28;20026;-75
2023/12/22 05:38:39;;;;;;;4.85;0.60;;;;;;;9.20;100.00;101029.25;4996887;28;20041;-75
2023/12/22 05:41:08;;;;;;;2.67;0.90;;;;;;;9.18;100.00;101022.03;5012579;28;20504;-75
2023/12/22 05:43:33;;;;;;;3.30;0.85;;;;;;;9.21;100.00;101022.59;5010669;28;20681;-76
2023/12/22 05:45:59;;;;;;;5.35;1.08;;;;;;;9.20;100.00;101023.72;5026494;28;20046;-75
2023/12/22 05:48:28;;;;;;;4.97;0.95;;;;;;;9.20;100.00;101029.25;5023722;28;20116;-76
2023/12/22 05:50:57;;;;;;;4.78;0.85;;;;;;;9.18;100.00;101022.03;5023975;28;20033;-76
2023/12/22 05:53:23;;;;;;;6.43;0.70;;;;;;;9.20;100.00;101020.94;5028778;28;20040;-76
2023/12/22 05:55:48;;;;;;;4.63;0.95;;;;;;;9.21;100.00;101023.44;5010498;28;20025;-76
2023/12/22 05:58:14;;;;;;;4.68;0.82;;;;;;;9.20;100.00;101023.72;5021558;28;20030;-76
2023/12/22 06:00:39;;;;;;;4.57;0.95;;;;;;;9.20;100.00;101016.22;5058360;28;20030;-76
2023/12/22 06:03:05;;;;;;;5.65;0.90;;;;;;;9.19;100.00;101025.63;5013573;28;20040;-76
2023/12/22 06:05:31;;;;;;;7.03;1.02;;;;;;;9.19;100.00;101022.84;5023629;28;20486;-76
2023/12/22 06:07:56;;;;;;;6.10;0.70;;;;;;;9.18;100.00;101013.72;5037499;28;20037;-76
2023/12/22 06:10:22;;;;;;;7.40;1.02;;;;;;;9.18;100.00;101015.66;5029129;28;20696;-76
2023/12/22 06:12:47;;;;;;;7.28;1.20;;;;;;;9.16;100.00;101013.19;5026573;28;20037;-75
2023/12/22 06:15:13;;;;;;;6.78;1.15;;;;;;;9.17;100.00;101025.09;5029142;28;20614;-76
2023/12/22 06:17:38;;;;;;;5.15;0.80;;;;;;;9.17;100.00;101028.69;4983341;28;20072;-75
2023/12/22 06:20:04;;;;;;;6.25;0.90;;;;;;;9.17;100.00;101020.38;5027503;28;20406;-75
2023/12/22 06:22:30;;;;;;;6.53;1.05;;;;;;;9.17;100.00;101020.38;5034510;28;20056;-75
2023/12/22 06:24:55;;;;;;;4.93;0.73;;;;;;;9.17;100.00;101020.38;5035888;28;20033;-75
2023/12/22 06:27:21;;;;;;;6.88;1.52;;;;;;;9.17;100.00;101020.38;5034612;28;20071;-75
2023/12/22 06:29:46;;;;;;;7.93;1.10;;;;;;;9.17;100.00;101027.88;5001638;28;20033;-75
2023/12/22 06:32:12;;;;;;;7.05;1.27;;;;;;;9.16;100.00;101024.25;5018249;28;20466;-75
2023/12/22 06:34:37;;;;;;;5.45;1.05;;;;;;;9.18;100.00;101022.03;5034617;28;20029;-76
2023/12/22 06:37:03;;;;;;;6.20;1.30;;;;;;;9.17;100.00;101025.09;5017875;28;20087;-75
2023/12/22 06:39:28;;;;;;;11.75;1.45;;;;;;;9.18;100.00;101022.03;5034784;28;20112;-75
2023/12/22 06:41:54;;;;;;;13.57;1.52;;;;;;;9.20;100.00;101030.09;5017653;28;20032;-76
2023/12/22 06:44:19;;;;;;;9.60;1.40;;;;;;;9.19;100.00;101031.16;4991805;28;20105;-76
2023/12/22 06:46:45;;;;;;;9.85;1.60;;;;;;;9.19;100.00;101033.94;5017714;28;20053;-76
2023/12/22 06:49:10;;;;;;;12.07;2.50;;;;;;;9.17;100.00;101037.00;5034701;28;20113;-76
2023/12/22 06:51:36;;;;;;;13.52;2.22;;;;;;;9.15;100.00;101038.38;5036708;28;20470;-76
2023/12/22 06:54:02;;;;;;;11.50;2.00;;;;;;;9.16;100.00;101034.50;5001575;28;20029;-76
2023/12/22 06:56:29;;;;;;;15.75;2.75;;;;;;;9.15;100.00;101038.38;5017285;28;20053;-76
2023/12/22 06:58:57;;;;;;;18.55;2.63;;;;;;;9.15;100.00;101039.19;5001216;28;20038;-75
2023/12/22 07:01:25;;;;;;;9.55;2.15;;;;;;;9.14;100.00;101037.56;5016478;28;20056;-75
2023/12/22 07:03:50;;;;;;;14.20;2.70;;;;;;;9.13;100.00;101044.19;5017946;28;20032;-74
2023/12/22 07:06:20;;;;;;;15.77;2.35;;;;;;;9.15;100.00;101043.91;5034004;28;20033;-74
2023/12/22 07:09:14;;;;;;;18.35;2.10;;;;;;;9.14;100.00;101045.88;5015659;28;20108;-74
2023/12/22 07:11:43;;;;;;;14.13;2.05;;;;;;;9.14;100.00;101061.66;5035491;28;20030;-74
2023/12/22 07:14:09;;;;;;;11.30;2.67;;;;;;;9.12;100.00;101050.00;5030261;28;20029;-74
2023/12/22 07:16:35;;;;;;;11.32;2.33;;;;;;;9.09;100.00;101056.91;5001610;28;20069;-74
2023/12/22 07:19:00;;;;;;;7.57;1.70;;;;;;;9.09;100.00;101061.63;5000290;28;20053;-73
2023/12/22 07:21:26;;;;;;;11.65;2.40;;;;;;;9.08;100.00;101054.41;5024972;28;20034;-73
2023/12/22 07:23:51;;;;;;;11.75;2.28;;;;;;;9.07;100.00;101053.59;5032746;28;20505;-73
2023/12/22 07:26:17;;;;;;;8.05;2.00;;;;;;;9.09;100.00;101059.69;5032014;28;20741;-73
2023/12/22 07:28:42;;;;;;;10.27;2.28;;;;;;;9.06;100.00;101057.47;5025522;28;20110;-74
2023/12/22 07:31:08;;;;;;;11.15;1.77;;;;;;;9.07;100.00;101050.81;5031511;28;20057;-73
2023/12/22 07:33:33;;;;;;;10.07;1.88;;;;;;;9.06;100.00;101048.31;4992467;28;20025;-74
2023/12/22 07:35:59;;;;;;;9.40;1.88;;;;;;;9.05;100.00;101047.47;5023347;28;20072;-73
2023/12/22 07:38:24;;;;;;;15.07;2.05;;;;;;;9.06;100.00;101046.38;5054023;28;20075;-73
2023/12/22 07:40:50;;;;;;;14.07;2.28;;;;;;;9.05;100.00;101055.78;5013851;28;20474;-74
2023/12/22 07:43:16;;;;;;;14.70;1.63;;;;;;;9.06;100.00;101054.69;5034411;28;20034;-73
2023/12/22 07:45:41;;;;;;;13.88;1.88;;;;;;;9.07;100.00;101063.84;5033916;28;20027;-73
2023/12/22 07:48:07;;;;;;;9.45;2.03;;;;;;;9.04;100.00;101062.44;5033583;28;20022;-73
2023/12/22 07:50:32;;;;;;;13.48;2.15;;;;;;;9.06;100.00;101063.00;5037042;28;20025;-73
2023/12/22 07:52:58;;;;;;;12.00;2.28;;;;;;;9.04;100.00;101065.22;5034403;28;20064;-73
2023/12/22 07:55:23;;;;;;;15.07;2.05;;;;;;;9.04;100.00;101079.06;5033521;28;20021;-73
2023/12/22 07:57:50;;;;;;;13.30;2.05;;;;;;;9.03;100.00;101077.41;4982134;28;20406;-73
2023/12/22 08:00:17;;;;;;;14.35;2.20;;;;;;;9.04;100.00;101081.00;4982926;28;20502;-73
2023/12/22 08:02:42;;;;;;;10.18;2.20;;;;;;;9.04;100.00;101081.84;5019402;28;20021;-73
2023/12/22 08:05:08;;;;;;;10.23;1.98;;;;;;;9.03;100.00;101085.72;5037965;28;20025;-74
2023/12/22 08:07:34;;;;;;;15.27;2.17;;;;;;;9.04;100.00;101078.22;5020177;28;20032;-74
2023/12/22 08:09:59;;;;;;;12.48;2.47;;;;;;;9.03;100.00;101079.34;5036717;28;20033;-74
2023/12/22 08:12:25;;;;;;;10.45;1.90;;;;;;;9.03;100.00;101096.81;5036973;28;20281;-74
2023/12/22 08:14:50;;;;;;;14.15;1.88;;;;;;;9.05;100.00;101089.03;5036764;28;20029;-74
2023/12/22 08:17:16;;;;;;;13.38;2.20;;;;;;;9.04;100.00;101097.63;5035758;28;20076;-74
2023/12/22 08:19:44;;;;;;;16.77;2.33;;;;;;;9.06;100.00;101096.25;5037019;28;20045;-74
2023/12/22 08:22:10;;;;;;;19.23;2.30;;;;;;;9.06;100.00;101100.97;5035700;28;20026;-74
2023/12/22 08:24:36;;;;;;;16.23;2.15;;;;;;;9.06;100.00;101112.88;5034942;28;20064;-74
2023/12/22 08:27:01;;;;;;;15.27;3.00;;;;;;;9.08;100.00;101105.16;5020456;28;20022;-74
2023/12/22 08:29:27;;;;;;;17.27;2.60;;;;;;;9.07;100.00;101114.53;5029593;28;20033;-74
2023/12/22 08:31:53;;;;;;;17.65;2.80;;;;;;;9.08;100.00;101099.59;5020671;28;20456;-74
2023/12/22 08:34:18;;;;;;;13.52;2.90;;;;;;;9.08;100.00;101107.91;5020192;28;20037;-74
2023/12/22 08:36:44;;;;;;;22.27;3.17;;;;;;;9.05;100.00;101113.97;5038170;28;20037;-74
2023/12/22 08:39:10;;;;;;;24.85;3.67;;;;;;;9.06;100.00;101118.44;5038249;28;20033;-73
2023/12/22 08:41:37;;;;;;;21.95;3.60;;;;;;;9.06;100.00;101112.88;5018863;28;20390;-73
2023/12/22 08:44:04;;;;;;;18.50;2.88;;;;;;;9.08;100.00;101115.38;5036425;28;20059;-74
2023/12/22 08:46:30;;;;;;;24.92;3.25;;;;;;;9.08;100.00;101119.00;5021111;28;20053;-73
2023/12/22 08:48:56;;;;;;;24.38;3.28;;;;;;;9.11;100.00;101125.91;4988038;28;20045;-73
2023/12/22 08:51:22;;;;;;;22.85;4.15;;;;;;;9.11;100.00;101118.47;5022914;28;20033;-74
2023/12/22 08:53:49;;;;;;;23.95;4.40;;;;;;;9.12;100.00;101122.06;5036644;28;20041;-74
2023/12/22 08:56:16;;;;;;;29.70;6.03;;;;;;;9.12;100.00;101122.88;5037503;28;20033;-74
2023/12/22 08:58:42;;;;;;;32.80;4.20;;;;;;;9.11;100.00;101135.09;5019974;28;20025;-74
2023/12/22 09:01:07;;;;;;;29.50;4.25;;;;;;;9.11;100.00;101126.78;5019886;28;20029;-74
2023/12/22 09:03:33;;;;;;;26.88;3.95;;;;;;;9.13;100.00;101140.34;5019827;28;20025;-74
2023/12/22 09:05:59;;;;;;;30.60;4.68;;;;;;;9.13;100.00;101137.56;5029803;28;20029;-74
2023/12/22 09:08:24;;;;;;;27.88;4.95;;;;;;;9.12;100.00;101139.50;5028540;28;20029;-74
2023/12/22 09:10:50;;;;;;;37.10;4.75;;;;;;;9.14;100.00;101142.84;5019906;28;20021;-74
2023/12/22 09:13:15;;;;;;;23.58;3.33;;;;;;;9.16;100.00;101145.34;5032505;28;20053;-74
2023/12/22 09:15:41;;;;;;;35.88;5.00;;;;;;;9.12;100.00;101145.06;5035295;28;20076;-74
2023/12/22 09:18:07;;;;;;;27.38;4.88;;;;;;;9.16;100.00;101160.06;5018534;28;20479;-74
2023/12/22 09:20:33;;;;;;;32.25;3.97;;;;;;;9.16;100.00;101165.59;5036057;28;20048;-74
2023/12/22 09:22:58;;;;;;;31.95;4.90;;;;;;;9.17;100.00;101158.94;5035931;28;20445;-74
2023/12/22 09:25:24;;;;;;;34.60;4.63;;;;;;;9.20;100.00;101156.75;5023747;28;20033;-74
2023/12/22 09:27:49;;;;;;;30.33;4.65;;;;;;;9.22;100.00;101148.97;5003190;28;20029;-74
2023/12/22 09:30:15;;;;;;;35.13;5.43;;;;;;;9.22;100.00;101144.28;5026826;28;20604;-74
2023/12/22 09:32:42;;;;;;;41.28;5.80;;;;;;;9.23;100.00;101140.41;5028196;28;20529;-74
2023/12/22 09:35:07;;;;;;;35.53;5.15;;;;;;;9.25;100.00;101131.78;5034635;28;20470;-74
2023/12/22 09:37:33;;;;;;;28.50;4.22;;;;;;;9.25;100.00;101132.66;5036030;28;20021;-74
2023/12/22 09:40:00;;;;;;;37.95;4.78;;;;;;;9.27;100.00;101146.22;5035845;28;20500;-73
2023/12/22 09:42:26;;;;;;;37.08;5.95;;;;;;;9.27;100.00;101135.97;5037193;28;20041;-74
2023/12/22 09:44:54;;;;;;;41.30;6.20;;;;;;;9.29;100.00;101124.63;5036435;28;20037;-74
2023/12/22 09:47:19;;;;;;;42.15;5.45;;;;;;;9.27;100.00;101130.44;5003213;28;20111;-74
2023/12/22 09:49:45;;;;;;;46.40;5.80;;;;;;;9.28;100.00;101126.56;5000908;28;20025;-73
2023/12/22 09:52:16;;;;;;;33.00;5.63;;;;;;;9.33;100.00;101131.28;5020969;28;20543;-74
2023/12/22 09:54:41;;;;;;;46.65;6.00;;;;;;;9.31;100.00;101141.84;5036592;28;20492;-74
2023/12/22 09:57:08;;;;;;;41.88;5.82;;;;;;;9.34;100.00;101136.56;5035126;28;20079;-73
2023/12/22 09:59:34;;;;;;;39.88;6.07;;;;;;;9.35;100.00;101154.03;5034961;28;20040;-73
2023/12/22 10:02:00;;;;;;;40.92;6.45;;;;;;;9.39;100.00;101150.47;5036829;28;20029;-74
2023/12/22 10:04:25;;;;;;;41.55;5.40;;;;;;;9.37;100.00;101162.91;5034973;28;20133;-73
2023/12/22 10:06:51;;;;;;;39.83;5.15;;;;;;;9.40;100.00;101154.06;5035049;28;20554;-73
2023/12/22 10:09:16;;;;;;;43.22;6.13;;;;;;;9.38;100.00;101165.41;5018384;28;20390;-74
2023/12/22 10:11:46;;;;;;;48.60;7.03;;;;;;;9.40;100.00;101168.75;5030868;28;20057;-73
2023/12/22 10:14:12;;;;;;;45.03;6.28;;;;;;;9.39;100.00;101172.63;5026335;28;20053;-74
2023/12/22 10:16:37;;;;;;;52.95;7.75;;;;;;;9.44;100.00;101162.66;5011743;28;20032;-74
2023/12/22 10:19:06;;;;;;;45.10;6.40;;;;;;;9.44;100.00;101174.56;5034004;28;20513;-74
2023/12/22 10:21:31;;;;;;;51.92;6.53;;;;;;;9.44;100.00;101169.03;5018469;28;20025;-74
2023/12/22 10:23:57;;;;;;;40.17;6.43;;;;;;;9.43;100.00;101172.09;5036023;28;20494;-74
2023/12/22 10:26:22;;;;;;;47.92;6.13;;;;;;;9.42;100.00;101168.50;5050648;28;20064;-73
2023/12/22 10:28:51;;;;;;;38.88;5.93;;;;;;;9.40;100.00;101170.69;5014723;28;20033;-74
2023/12/22 10:31:17;;;;;;;53.65;7.20;;;;;;;9.41;100.00;101177.91;5028065;28;20516;-73
2023/12/22 10:33:43;;;;;;;44.78;6.60;;;;;;;9.43;100.00;101175.69;5001804;28;20509;-73
2023/12/22 10:36:09;;;;;;;43.65;7.63;;;;;;;9.42;100.00;101176.81;5035668;28;20037;-74
2023/12/22 10:38:35;;;;;;;46.45;6.03;;;;;;;9.42;100.00;101176.81;5034360;28;20033;-74
2023/12/22 10:41:04;;;;;;;47.95;6.97;;;;;;;9.43;100.00;101174.88;5034512;28;20036;-73
2023/12/22 10:43:30;;;;;;;50.10;6.55;;;;;;;9.43;100.00;101170.16;4997680;28;20026;-73
2023/12/22 10:45:55;;;;;;;46.78;6.75;;;;;;;9.44;100.00;101163.50;5028236;28;20036;-73
2023/12/22 10:48:22;;;;;;;46.97;6.75;;;;;;;9.47;100.00;101159.34;5016436;28;20033;-73
2023/12/22 10:50:48;;;;;;;44.67;6.60;;;;;;;9.48;100.00;101166.56;5000411;28;20108;-73
2023/12/22 10:53:14;;;;;;;45.88;6.47;;;;;;;9.48;100.00;101178.50;5010887;28;20048;-73
2023/12/22 10:55:39;;;;;;;55.72;6.93;;;;;;;9.53;100.00;101172.97;5000948;28;20041;-73
2023/12/22 10:58:05;;;;;;;47.08;6.82;;;;;;;9.53;100.00;101175.75;5008896;28;20037;-73
2023/12/22 11:00:32;;;;;;;42.75;6.60;;;;;;;9.53;100.00;101167.44;5001771;28;20030;-73
2023/12/22 11:03:01;;;;;;;51.50;7.00;;;;;;;9.55;100.00;101173.50;5009945;28;20045;-74
2023/12/22 11:05:26;;;;;;;46.70;6.45;;;;;;;9.56;100.00;101175.19;5037090;28;20431;-74
2023/12/22 11:07:52;;;;;;;40.05;5.95;;;;;;;9.57;100.00;101185.19;5011343;28;20113;-74
2023/12/22 11:10:21;;;;;;;44.47;6.75;;;;;;;9.56;100.00;101174.38;5026453;28;20035;-74
2023/12/22 11:12:46;;;;;;;41.38;6.30;;;;;;;9.60;100.00;101181.03;5008813;28;20064;-74